Andrews Air Force Base, MD (20762)

12:01 AM EDT on May 28, 2015 (GMT -0400)
Summit Creek | | Change Station
CLOSE
Current Station
Personal Weather Station
Location: Clinton, MD
Elevation: 233 ft
Nearby Weather Stations

Elev 233 ft 38.76 °N, 76.88 °W | Updated 16 minutes ago

Scattered Clouds
Scattered Clouds
72.5 °F
Feels Like 72.5 °F
N
0.0
Wind Variable Wind from South

Today
High -- | Low -- °F
--% Chance of Precip.
Yesterday
High -- | Low -- °F
Precip. -- in
5:46 AM 8:23 PM
Waxing Gibbous, 72% visible
Pressure 30.17 in
Visibility 10.0 miles
Clouds Scattered Clouds 18000 ft
Dew Point 70 °F
Humidity 91%
Rainfall in
Snow Depth Not available.
UV 0 out of 12
Pollen 7.10 out of 12
Air Quality Not available.
Flu Activity Sporadic
METAR KADW 280258Z AUTO 13003KT 10SM SCT180 23/21 A3015 RMK AO2 SLP214 T02250205 52009 CHINO RWY19L

More Conditions Fewer Conditions

Pressure 30.17 in
Visibility 10.0 miles
Clouds Scattered Clouds 18000 ft
Dew Point 70 °F
Humidity 91%
Rainfall in
Snow Depth Not available.
UV 0 out of 12
Pollen 7.10 out of 12
Air Quality Not available.
Flu Activity Sporadic
METAR KADW 280258Z AUTO 13003KT 10SM SCT180 23/21 A3015 RMK AO2 SLP214 T02250205 52009 CHINO RWY19L

More Conditions Fewer Conditions

10-Day Weather Forecast

Almanac

Astronomy

May. 28, 2015 Rise Set
Actual Time
Civil Twilight
Nautical Twilight
Astronomical Twilight
Moon
Length of Visible Light
Length of Day
Tomorrow will be .
, % of the Moon is Illuminated

Today's Extremes

State Highs State Lows

Community

WunderPhotos

Upload Photos

1,824,914 photos uploaded!

WunderBlogs® & News

Nearby

Air Quality

  Air Quality AQ Index Pollutant
Not available.

Snow Depth

Station Depth Elevation

Earthquake Activity

City Distance Mag. Time & Date
Minimum magnitude displayed is 2.5.

Coastal Water Temperatures

Place Temperature

Stations

Nearby Weather Stations

Station Location Temp. Windchill Dew Point Humidity Wind Precip. Elev Updated Type